地図

経路データ

SID SEASON NUMBER BASIN SUBBASIN NAME ISO_TIME NATURE LAT LON WMO_WIND WMO_PRES WMO_AGENCY TRACK_TYPE DIST2LAND LANDFALL IFLAG USA_AGENCY USA_ATCF_ID USA_LAT USA_LON USA_RECORD USA_STATUS USA_WIND USA_PRES USA_SSHS USA_R34_NE USA_R34_SE USA_R34_SW USA_R34_NW USA_R50_NE USA_R50_SE USA_R50_SW USA_R50_NW USA_R64_NE USA_R64_SE USA_R64_SW USA_R64_NW USA_POCI USA_ROCI USA_RMW USA_EYE TOKYO_LAT TOKYO_LON TOKYO_GRADE TOKYO_WIND TOKYO_PRES TOKYO_R50_DIR TOKYO_R50_LONG TOKYO_R50_SHORT TOKYO_R30_DIR TOKYO_R30_LONG TOKYO_R30_SHORT TOKYO_LAND CMA_LAT CMA_LON CMA_CAT CMA_WIND CMA_PRES HKO_LAT HKO_LON HKO_CAT HKO_WIND HKO_PRES NEWDELHI_LAT NEWDELHI_LON NEWDELHI_GRADE NEWDELHI_WIND NEWDELHI_PRES NEWDELHI_CI NEWDELHI_DP NEWDELHI_POCI REUNION_LAT REUNION_LON REUNION_TYPE REUNION_WIND REUNION_PRES REUNION_TNUM REUNION_CI REUNION_RMW REUNION_R34_NE REUNION_R34_SE REUNION_R34_SW REUNION_R34_NW REUNION_R50_NE REUNION_R50_SE REUNION_R50_SW REUNION_R50_NW REUNION_R64_NE REUNION_R64_SE REUNION_R64_SW REUNION_R64_NW BOM_LAT BOM_LON BOM_TYPE BOM_WIND BOM_PRES BOM_TNUM BOM_CI BOM_RMW BOM_R34_NE BOM_R34_SE BOM_R34_SW BOM_R34_NW BOM_R50_NE BOM_R50_SE BOM_R50_SW BOM_R50_NW BOM_R64_NE BOM_R64_SE BOM_R64_SW BOM_R64_NW BOM_ROCI BOM_POCI BOM_EYE BOM_POS_METHOD BOM_PRES_METHOD NADI_LAT NADI_LON NADI_CAT NADI_WIND NADI_PRES WELLINGTON_LAT WELLINGTON_LON WELLINGTON_WIND WELLINGTON_PRES DS824_LAT DS824_LON DS824_STAGE DS824_WIND DS824_PRES TD9636_LAT TD9636_LON TD9636_STAGE TD9636_WIND TD9636_PRES TD9635_LAT TD9635_LON TD9635_WIND TD9635_PRES TD9635_ROCI NEUMANN_LAT NEUMANN_LON NEUMANN_CLASS NEUMANN_WIND NEUMANN_PRES MLC_LAT MLC_LON MLC_CLASS MLC_WIND MLC_PRES USA_GUST BOM_GUST BOM_GUST_PER REUNION_GUST REUNION_GUST_PER USA_SEAHGT USA_SEARAD_NE USA_SEARAD_SE USA_SEARAD_SW USA_SEARAD_NW STORM_SPEED STORM_DIR
1958092S10159 1958 27 SP EA NOT_NAMED 1958-04-02 05:00:00 NR -10.0000 159.000 1005 bom main 86 86 ______O_______ -1 -10.0000 159.000 1005 10 266
1958092S10159 1958 27 SP EA NOT_NAMED 1958-04-02 06:00:00 TS -10.0121 158.827 main 104 104 ______P__O____ -1 -10.0181 158.840 -10.0000 158.800 TC 20 1005 10 266
1958092S10159 1958 27 SP EA NOT_NAMED 1958-04-02 09:00:00 TS -10.0445 158.345 main 153 153 ______P__P____ -1 -10.0697 158.360 -10.0067 158.324 TC 8 265
1958092S10159 1958 27 SP EA NOT_NAMED 1958-04-02 11:00:00 TS -10.0667 158.186 main 167 167 ______P__PO___ -1 -10.0997 158.042 -10.0117 158.008 TC -10.1000 159.300 1 2 269
1958092S10159 1958 27 SP EA NOT_NAMED 1958-04-02 12:00:00 TS -10.0467 158.251 main 153 145 O_____P__PP___ jtwc_sh SH271958 -10.0000 159.000 -1 -10.1127 157.883 -10.0147 157.852 TC -10.0256 159.036 1 6 289
1958092S10159 1958 27 SP EA NOT_NAMED 1958-04-02 15:00:00 TS -9.92372 157.774 main 145 138 P_____P__PP___ SH271958 -9.68300 158.159 -1 -10.1410 157.412 -10.0260 157.389 TC -9.81862 158.258 1 10 284
1958092S10159 1958 27 SP EA NOT_NAMED 1958-04-02 18:00:00 TS -9.80332 157.225 main 149 149 O_____P__PP___ jtwc_sh SH271958 -9.50000 157.400 -1 -10.1488 156.948 -10.0426 156.939 TC -9.67353 157.526 1 11 277
1958092S10159 1958 27 SP EA NOT_NAMED 1958-04-02 21:00:00 TS -9.78796 156.689 main 176 176 P_____P__PP___ SH271958 -9.55233 156.783 -1 -10.1301 156.495 -10.0666 156.508 TC -9.63844 156.874 1 10 266
1958092S10159 1958 27 SP EA NOT_NAMED 1958-04-02 23:00:00 TS -9.85770 156.366 bom main 199 199 P_____O__PO___ SH271958 -9.70040 156.447 -1 -10.1000 156.200 -10.0877 156.233 TC -9.70000 156.500 1 10 255
1958092S10159 1958 27 SP EA NOT_NAMED 1958-04-03 00:00:00 TS -9.90817 156.218 main 210 210 O_____P__OP___ jtwc_sh SH271958 -9.80000 156.300 -1 -10.0799 156.055 -10.1000 156.100 TC -9.76097 156.335 1 9 244
1958092S10159 1958 27 SP EA NOT_NAMED 1958-04-03 03:00:00 TS -10.1186 155.812 main 253 253 P_____P__PP___ SH271958 -10.1700 155.860 -1 -10.0471 155.673 -10.1570 155.735 TC -10.0489 155.932 1 9 235
1958092S10159 1958 27 SP EA NOT_NAMED 1958-04-03 05:00:00 TS -10.3126 155.625 1002 bom main 284 284 P_____O__PP___ SH271958 -10.4592 155.661 -1 -10.1000 155.500 1002 -10.2382 155.558 TC -10.3065 155.744 1 8 218
1958092S10159 1958 27 SP EA NOT_NAMED 1958-04-03 06:00:00 TS -10.4282 155.563 main 293 293 O_____P__OP___ jtwc_sh SH271958 -10.6000 155.600 -1 -10.1926 155.440 1001 -10.3000 155.500 TC 25 1002 -10.4483 155.676 1 8 193
1958092S10159 1958 27 SP EA NOT_NAMED 1958-04-03 09:00:00 TS -10.8200 155.505 main 336 336 P_____P__PP___ SH271958 -10.9499 155.552 -1 -10.6366 155.389 1001 -10.6638 155.454 TC 26 1001 -10.8997 155.575 1 8 178
1958092S10159 1958 27 SP EA NOT_NAMED 1958-04-03 11:00:00 TS -11.1108 155.569 main 359 359 P_____P__PO___ SH271958 -11.1802 155.634 -1 -11.0120 155.450 1001 -10.9817 155.526 TC 27 1001 -11.2000 155.600 1 9 165
1958092S10159 1958 27 SP EA NOT_NAMED 1958-04-03 12:00:00 TS -11.2593 155.624 main 379 374 O_____P__PP___ jtwc_sh SH271958 -11.3000 155.700 -1 -11.2059 155.506 1000 -11.1497 155.587 TC 27 1001 -11.3410 155.629 1 10 153
1958092S10159 1958 27 SP EA NOT_NAMED 1958-04-03 15:00:00 TS -11.7095 155.872 main 404 404 P_____P__PP___ SH271958 -11.7000 155.955 -1 -11.7410 155.764 1000 -11.6358 155.851 TC 28 1000 -11.7706 155.836 1 10 147
1958092S10159 1958 27 SP EA NOT_NAMED 1958-04-03 17:00:00 TS -11.9773 156.099 1000 bom main 423 419 P_____O__PP___ SH271958 -11.9698 156.181 -1 -12.0000 156.000 1000 -11.8997 156.077 TC 29 1000 -12.0475 156.053 1 10 138
1958092S10159 1958 27 SP EA NOT_NAMED 1958-04-03 18:00:00 TS -12.0885 156.221 main 429 425 O_____P__OP___ jtwc_sh SH271958 -12.1000 156.300 -1 -12.0637 156.125 1000 -12.0000 156.200 TC 30 1000 -12.1786 156.179 1 9 128
1958092S10159 1958 27 SP EA NOT_NAMED 1958-04-03 21:00:00 TS -12.3635 156.602 main 445 437 P_____P__PP___ SH271958 -12.4949 156.627 -1 -12.1664 156.576 1000 -12.1372 156.576 TC 30 1000 -12.5243 156.602 1 9 123
1958092S10159 1958 27 SP EA NOT_NAMED 1958-04-03 23:00:00 TS -12.5021 156.879 1000 bom main 437 429 P_____O__PO___ SH271958 -12.7145 156.869 -1 -12.2000 156.900 1000 -12.1817 156.857 TC 30 1000 -12.7000 156.900 1 9 116
1958092S10159 1958 27 SP EA NOT_NAMED 1958-04-04 00:00:00 TS -12.5594 157.017 main 437 415 O_____P__OP___ jtwc_sh SH271958 -12.8000 157.000 -1 -12.2356 157.050 -12.2000 157.000 TC 30 1000 -12.7615 157.033 1 9 109
1958092S10159 1958 27 SP EA NOT_NAMED 1958-04-04 03:00:00 TS -12.6902 157.451 main 410 391 P_____P__PP___ SH271958 -12.9600 157.443 -1 -12.3468 157.499 -12.3093 157.413 TC -12.8750 157.457 1 9 103
1958092S10159 1958 27 SP EA NOT_NAMED 1958-04-04 06:00:00 TS -12.7592 157.894 main 394 373 O_____P__PP___ jtwc_sh SH271958 -13.0000 157.900 -1 -12.4616 157.940 -12.4233 157.831 TC -12.9109 157.898 1 8 97
1958092S10159 1958 27 SP EA NOT_NAMED 1958-04-04 09:00:00 TS -12.7872 158.312 main 373 360 P_____P__PP___ SH271958 -12.9574 158.308 -1 -12.5761 158.368 -12.5384 158.245 TC -12.9066 158.329 1 8 93
1958092S10159 1958 27 SP EA NOT_NAMED 1958-04-04 11:00:00 TS -12.7981 158.580 main 360 356 P_____P__PO___ SH271958 -12.9131 158.569 -1 -12.6506 158.643 -12.6139 158.516 TC -12.9000 158.600 1 8 93
1958092S10159 1958 27 SP EA NOT_NAMED 1958-04-04 12:00:00 TS -12.8101 158.711 main 356 347 O_____P__PP___ jtwc_sh SH271958 -12.9000 158.700 -1 -12.6868 158.776 -12.6508 158.649 TC -12.9129 158.732 1 8 98
1958092S10159 1958 27 SP EA NOT_NAMED 1958-04-04 15:00:00 TS -12.8757 159.112 main 355 337 P_____P__PP___ SH271958 -12.9426 159.130 -1 -12.7899 159.158 -12.7568 159.034 TC -12.9466 159.108 1 8 100
1958092S10159 1958 27 SP EA NOT_NAMED 1958-04-04 18:00:00 TS -12.9415 159.470 main 337 332 O_____P__PP___ jtwc_sh SH271958 -13.0000 159.500 -1 -12.8817 159.507 -12.8528 159.393 TC -12.9729 159.449 1 6 100
1958092S10159 1958 27 SP EA NOT_NAMED 1958-04-04 21:00:00 TS -12.9800 159.750 main 326 320 P_____P__PP___ SH271958 -13.0074 159.738 -1 -12.9587 159.818 -12.9350 159.718 TC -12.9917 159.740 1 5 98
1958092S10159 1958 27 SP EA NOT_NAMED 1958-04-04 23:00:00 TS -12.9971 159.902 1000 bom main 320 314 P_____O__PO___ SH271958 -13.0026 159.850 -1 -13.0000 160.000 1000 -12.9805 159.911 TC -13.0000 159.900 1 4 96
1958092S10159 1958 27 SP EA NOT_NAMED 1958-04-05 00:00:00 TS -13.0035 159.970 main 314 308 O_____P__OP___ jtwc_sh SH271958 -13.0000 159.900 -1 -13.0141 160.079 -13.0000 160.000 TC 30 1000 -13.0032 159.969 1 4 95
1958092S10159 1958 27 SP MM NOT_NAMED 1958-04-05 03:00:00 TS -13.0177 160.152 main 301 295 P_____P__PP___ SH271958 -13.0000 160.065 -1 -13.0446 160.284 -13.0363 160.215 TC -13.0076 160.130 1 3 94
1958092S10159 1958 27 SP MM NOT_NAMED 1958-04-05 06:00:00 TS -13.0244 160.296 main 295 289 O_____P__PP___ jtwc_sh SH271958 -13.0000 160.200 -1 -13.0595 160.448 -13.0561 160.386 TC -13.0063 160.245 1 2 92
1958092S10159 1958 27 SP MM NOT_NAMED 1958-04-05 09:00:00 TS -13.0254 160.408 main 289 284 P_____P__PP___ SH271958 -13.0000 160.300 -1 -13.0620 160.578 -13.0624 160.524 TC -13.0025 160.338 1 2 90
1958092S10159 1958 27 SP MM NOT_NAMED 1958-04-05 11:00:00 TS -13.0238 160.476 main 284 284 P_____P__PO___ SH271958 -13.0000 160.364 -1 -13.0583 160.651 -13.0606 160.601 TC -13.0000 160.400 1 2 89
1958092S10159 1958 27 SP MM NOT_NAMED 1958-04-05 12:00:00 TS -13.0227 160.512 main 284 278 O_____P__PP___ jtwc_sh SH271958 -13.0000 160.400 -1 -13.0552 160.684 -13.0583 160.636 TC -13.0000 160.440 1 2 88
1958092S10159 1958 27 SP MM NOT_NAMED 1958-04-05 15:00:00 TS -13.0178 160.633 main 278 273 P_____P__PP___ SH271958 -13.0000 160.550 -1 -13.0421 160.773 -13.0470 160.731 TC -13.0000 160.561 1 2 87
1958092S10159 1958 27 SP MM NOT_NAMED 1958-04-05 18:00:00 TS -13.0115 160.751 main 269 269 O_____P__PP___ jtwc_sh SH271958 -13.0000 160.700 -1 -13.0259 160.856 -13.0315 160.817 TC -13.0000 160.684 1 2 87
1958092S10159 1958 27 SP MM NOT_NAMED 1958-04-05 21:00:00 TS -13.0048 160.851 main 265 265 P_____P__PP___ SH271958 -13.0000 160.800 -1 -13.0095 160.939 -13.0148 160.904 TC -13.0000 160.811 1 2 86
1958092S10159 1958 27 SP MM NOT_NAMED 1958-04-05 23:00:00 TS -13.0009 160.919 999 bom main 265 261 P_____O__PO___ SH271958 -13.0000 160.864 -1 -13.0000 161.000 999 -13.0045 160.967 TC -13.0000 160.900 1 2 87
1958092S10159 1958 27 SP MM NOT_NAMED 1958-04-06 00:00:00 TS -13.0000 160.958 main 261 257 O_____P__OP___ jtwc_sh SH271958 -13.0000 160.900 -1 -13.0000 161.039 -13.0000 161.000 TC 30 999 -13.0000 160.949 1 2 90
1958092S10159 1958 27 SP MM NOT_NAMED 1958-04-06 03:00:00 TS -12.9998 161.077 main 257 254 P_____P__PP___ SH271958 -13.0000 161.042 -1 -12.9999 161.156 -12.9990 161.042 TC -13.0000 161.103 1 2 90
1958092S10159 1958 27 SP MM NOT_NAMED 1958-04-06 06:00:00 TS -12.9995 161.202 main 254 252 O_____P__PP___ jtwc_sh SH271958 -13.0000 161.200 -1 -12.9998 161.274 -12.9979 161.076 TC -13.0000 161.259 1 2 90
1958092S10159 1958 27 SP MM NOT_NAMED 1958-04-06 09:00:00 TS -12.9994 161.331 main 252 250 P_____P__PP___ SH271958 -13.0000 161.365 -1 -12.9998 161.396 -12.9970 161.122 TC -13.0000 161.409 1 2 90
1958092S10159 1958 27 SP MM NOT_NAMED 1958-04-06 11:00:00 TS -12.9993 161.414 main 250 250 P_____P__PO___ SH271958 -13.0000 161.461 -1 -12.9997 161.481 -12.9966 161.168 TC -13.0000 161.500 1 2 90
1958092S10159 1958 27 SP MM NOT_NAMED 1958-04-06 12:00:00 TS -12.9990 161.447 main 250 248 O_____P__PP___ jtwc_sh SH271958 -13.0000 161.500 -1 -12.9997 161.525 -12.9965 161.198 TC -12.9986 161.514 1 2 89
1958092S10159 1958 27 SP MM NOT_NAMED 1958-04-06 15:00:00 TS -12.9980 161.519 main 248 247 P_____P__PP___ SH271958 -12.9999 161.535 -1 -12.9998 161.663 -12.9965 161.325 TC -12.9937 161.535 1 2 90
1958092S10159 1958 27 SP MM NOT_NAMED 1958-04-06 18:00:00 TS -12.9976 161.623 main 247 246 O_____P__PP___ jtwc_sh SH271958 -13.0000 161.600 -1 -12.9999 161.814 -12.9971 161.521 TC -12.9909 161.579 1 3 90
1958092S10159 1958 27 SP MM NOT_NAMED 1958-04-06 21:00:00 TS -12.9983 161.808 main 246 246 P_____P__PP___ SH271958 -12.9998 161.768 -1 -12.9999 161.980 -12.9983 161.806 TC -12.9935 161.719 1 4 90
1958092S10159 1958 27 SP MM NOT_NAMED 1958-04-06 23:00:00 TS -12.9998 161.998 bom main 246 246 P_____O__PO___ SH271958 -12.9999 161.966 -1 -13.0000 162.100 -12.9994 162.056 TC -13.0000 161.900 1 6 90
1958092S10159 1958 27 SP MM NOT_NAMED 1958-04-07 00:00:00 TS -13.0007 162.112 main 246 246 O_____P__OP___ jtwc_sh SH271958 -13.0000 162.100 -1 -12.9997 162.120 -13.0000 162.200 TC -13.0040 162.039 1 8 90
1958092S10159 1958 27 SP MM NOT_NAMED 1958-04-07 03:00:00 TS -13.0014 162.564 main 248 248 P_____P__PP___ SH271958 -12.9926 162.640 -1 -12.9993 162.254 -13.0017 162.713 TC -13.0210 162.573 1 10 90
1958092S10159 1958 27 SP MM NOT_NAMED 1958-04-07 05:00:00 TS -13.0054 162.953 998 bom main 257 257 P_____O__PP___ SH271958 -12.9943 163.076 -1 -13.0000 162.500 998 4 -13.0025 163.110 TC -13.0361 163.000 1 12 91
1958092S10159 1958 27 SP MM NOT_NAMED 1958-04-07 06:00:00 TS -13.0096 163.169 main 265 265 O_____P__PP___ jtwc_sh SH271958 -13.0000 163.300 -1 -13.0007 162.696 -13.0027 163.322 TC -13.0448 163.228 1 13 92
1958092S10159 1958 27 SP MM NOT_NAMED 1958-04-07 09:00:00 TS -13.0378 163.870 main 301 301 P_____P__PP___ SH271958 -13.0500 163.957 -1 -13.0026 163.536 -13.0023 163.995 TC -13.0755 163.934 1 14 93
1958092S10159 1958 27 SP MM NOT_NAMED 1958-04-07 11:00:00 TS -13.0647 164.376 main 296 279 P_____P__PO___ SH271958 -13.0864 164.392 -1 -13.0023 164.242 -13.0010 164.464 TC -13.1000 164.400 1 14 93
1958092S10159 1958 27 SP MM NOT_NAMED 1958-04-07 12:00:00 TS -13.0792 164.599 main 279 264 O_____P__OP___ jtwc_sh SH271958 -13.1000 164.600 -1 -13.0014 164.618 -13.0000 164.700 TC -13.0961 164.564 1 12 93
1958092S10159 1958 27 SP MM NOT_NAMED 1958-04-07 13:00:00 TS -13.0881 164.783 bom main 264 241 P_____O___P___ SH271958 -13.0976 164.787 -1 -13.0000 165.000 TC -13.0911 164.721 1 10 91
1958092S10159 1958 27 SP MM NOT_NAMED 1958-04-07 15:00:00 TS -13.0843 165.106 main 241 209 P_________P___ SH271958 -13.0846 165.143 -1 TC -13.0837 165.032 1 10 91
1958092S10159 1958 27 SP MM NOT_NAMED 1958-04-07 18:00:00 TS -13.1002 165.649 main 209 173 O_________P___ jtwc_sh SH271958 -13.1000 165.700 -1 TC -13.1007 165.548 1 11 96
1958092S10159 1958 27 SP MM NOT_NAMED 1958-04-07 21:00:00 TS -13.1929 166.255 main 171 156 P_________P___ SH271958 -13.1963 166.273 -1 TC -13.1862 166.217 1 14 101
1958092S10159 1958 27 SP MM NOT_NAMED 1958-04-07 23:00:00 TS -13.3123 166.786 main 158 149 P_________O___ SH271958 -13.3185 166.779 -1 TC -13.3000 166.800 1 17 103
1958092S10159 1958 27 SP MM NOT_NAMED 1958-04-08 00:00:00 TS -13.3938 167.123 main 155 155 O_________P___ jtwc_sh SH271958 -13.4000 167.100 -1 -13.3814 167.170 1 24 104
1958092S10159 1958 27 SP MM NOT_NAMED 1958-04-08 03:00:00 TS -13.7073 168.404 main 202 202 P_________P___ SH271958 -13.7128 168.373 -1 -13.6962 168.465 1 28 104
1958092S10159 1958 27 SP MM NOT_NAMED 1958-04-08 06:00:00 TS -14.0953 169.915 main 317 317 O_________P___ jtwc_sh SH271958 -14.1000 169.900 -1 -14.0858 169.946 1 31 105
1958092S10159 1958 27 SP MM NOT_NAMED 1958-04-08 09:00:00 TS -14.4941 171.469 main 445 445 P_________P___ SH271958 -14.4850 171.458 -1 -14.5124 171.492 1 31 105
1958092S10159 1958 27 SP MM NOT_NAMED 1958-04-08 11:00:00 TS -14.7722 172.499 main 530 530 P_________O___ SH271958 -14.7583 172.499 -1 -14.8000 172.500 2 31 106
1958092S10159 1958 27 SP MM NOT_NAMED 1958-04-08 12:00:00 TS -14.9148 172.992 main 558 419 O_________P___ jtwc_sh SH271958 -14.9000 173.000 -1 -14.9444 172.976 2 29 108
1958092S10159 1958 27 SP MM NOT_NAMED 1958-04-08 15:00:00 TS -15.3678 174.398 main 403 277 P_________P___ SH271958 -15.3565 174.403 -1 -15.3905 174.389 2 28 109
1958092S10159 1958 27 SP MM NOT_NAMED 1958-04-08 18:00:00 TS -15.8076 175.713 main 270 158 O_________P___ jtwc_sh SH271958 -15.8000 175.700 -1 -15.8229 175.738 2 26 109
1958092S10159 1958 27 SP MM NOT_NAMED 1958-04-08 21:00:00 TS -16.2014 176.978 main 154 91 P_________P___ SH271958 -16.2023 176.982 -1 -16.1997 176.970 2 24 107
1958092S10159 1958 27 SP MM NOT_NAMED 1958-04-08 23:00:00 TS -16.4114 177.736 main 91 57 P_________O___ SH271958 -16.4171 177.753 -1 -16.4000 177.700 1 22 105
1958092S10159 1958 27 SP MM NOT_NAMED 1958-04-09 00:00:00 TS -16.4915 178.079 main 48 0 O_________P___ jtwc_sh SH271958 -16.5000 178.100 -1 -16.4744 178.036 1 18 101
1958092S10159 1958 27 SP MM NOT_NAMED 1958-04-09 03:00:00 TS -16.6410 178.969 main 0 0 P_________P___ SH271958 -16.6442 178.991 -1 -16.6347 178.925 1 16 98
1958092S10159 1958 27 SP MM NOT_NAMED 1958-04-09 06:00:00 TS -16.7082 179.690 main 0 0 O_________P___ jtwc_sh SH271958 -16.7000 179.700 -1 -16.7246 179.669 1 13 95
1958092S10159 1958 27 SP MM NOT_NAMED 1958-04-09 09:00:00 TS -16.7629 180.328 main 42 42 P_________P___ SH271958 -16.7571 -179.662 -1 -16.7745 -179.690 1 12 95
1958092S10159 1958 27 SP MM NOT_NAMED 1958-04-09 11:00:00 TS -16.7905 180.711 main 85 85 P_________O___ SH271958 -16.7858 -179.284 -1 -16.8000 -179.300 1 11 94
1958092S10159 1958 27 SP MM NOT_NAMED 1958-04-09 12:00:00 TS -16.8054 180.895 main 106 106 O_________P___ jtwc_sh SH271958 -16.8000 -179.100 -1 -16.8135 -179.112 1 11 95
1958092S10159 1958 27 SP MM NOT_NAMED 1958-04-09 15:00:00 TS -16.8534 181.442 main 160 160 P_________P___ SH271958 -16.8479 -178.550 -1 -16.8588 -178.566 1 10 96
1958092S10159 1958 27 SP MM NOT_NAMED 1958-04-09 18:00:00 TS -16.9058 181.974 main 223 223 O_________P___ jtwc_sh SH271958 -16.9000 -178.000 -1 -16.9097 -178.044 1 10 96
1958092S10159 1958 27 SP MM NOT_NAMED 1958-04-09 21:00:00 NR -16.9636 182.465 main 277 277 __________P___ SH271958 -1 -16.9636 -177.535 1 10 97
1958092S10159 1958 27 SP MM NOT_NAMED 1958-04-09 23:00:00 NR -17.0000 182.800 main 309 __________O___ SH271958 -1 -17.0000 -177.200 1 10 96

デジタル台風データ・検索

IBTrACS Databaseについて

本データベースは、米国NOAAが公開する1842年以降の世界の熱帯低気圧のベストトラックデータアーカイブInternational Best Track Archive for Climate Stewardship (IBTrACS)を、ウェブで閲覧しやすい形式に変換したものです。

最終更新日:2021-12-06